Time;durP1;ratioP1;P1;durP2;ratioP2;P2;SDS_P1;SDS_P2;PMS_P1;PMS_P2;Temp;Humidity;BMP_temperature;BMP_pressure;BME280_temperature;BME280_humidity;BME280_pressure;Samples;Min_cycle;Max_cycle;Signal;HPM_P1;HPM_P2
2022/03/10 00:01:01;;;;;;;;;4.50;4.50;16.20;99.90;;;;;;5008216;28;11004;-49
2022/03/10 00:03:32;;;;;;;;;4.50;4.50;16.20;99.90;;;;;;5012845;28;10876;-49
2022/03/10 00:06:03;;;;;;;;;5.50;4.00;16.10;99.90;;;;;;5006185;28;10924;-51
2022/03/10 00:08:33;;;;;;;;;5.00;5.00;16.10;99.90;;;;;;5008466;28;10836;-48
2022/03/10 00:11:04;;;;;;;;;5.25;5.25;16.00;99.90;;;;;;5011674;28;11156;-52
2022/03/10 00:13:35;;;;;;;;;2.25;2.25;16.00;99.90;;;;;;5012442;28;10938;-48
2022/03/10 00:16:06;;;;;;;;;5.25;5.25;16.00;99.90;;;;;;5011435;28;10965;-50
2022/03/10 00:18:37;;;;;;;;;4.00;4.00;16.00;99.90;;;;;;5011336;28;10835;-47
2022/03/10 00:21:07;;;;;;;;;1.50;1.50;15.90;99.90;;;;;;5015016;28;10829;-48
2022/03/10 00:23:37;;;;;;;;;3.75;3.75;15.90;99.90;;;;;;5009333;28;11125;-49
2022/03/10 00:26:08;;;;;;;;;3.25;3.25;15.80;99.90;;;;;;5012207;28;10979;-50
2022/03/10 00:28:39;;;;;;;;;3.25;2.00;15.90;99.90;;;;;;5014899;28;11211;-48
2022/03/10 00:31:11;;;;;;;;;5.00;5.00;15.80;99.90;;;;;;5008405;28;10912;-49
2022/03/10 00:33:42;;;;;;;;;5.25;5.25;15.90;99.90;;;;;;5011154;28;10988;-50
2022/03/10 00:36:13;;;;;;;;;2.25;2.25;15.80;99.90;;;;;;5016094;28;11715;-47
2022/03/10 00:38:44;;;;;;;;;3.00;3.00;15.80;99.90;;;;;;5016759;28;10853;-46
2022/03/10 00:41:14;;;;;;;;;3.25;3.25;15.80;99.90;;;;;;5013568;28;10987;-48
2022/03/10 00:43:46;;;;;;;;;5.00;5.00;15.80;99.90;;;;;;5013399;28;11729;-49
2022/03/10 00:46:19;;;;;;;;;3.00;3.00;15.80;99.90;;;;;;5014303;28;12304;-47
2022/03/10 00:48:49;;;;;;;;;2.00;2.00;15.80;99.90;;;;;;5010251;28;11636;-48
2022/03/10 00:51:20;;;;;;;;;5.75;5.75;15.70;99.90;;;;;;5005329;28;10645;-50
2022/03/10 00:53:52;;;;;;;;;3.00;3.00;15.70;99.90;;;;;;5012901;28;11093;-47
2022/03/10 00:56:23;;;;;;;;;4.25;4.25;15.70;99.90;;;;;;5010609;28;11071;-46
2022/03/10 00:58:53;;;;;;;;;3.00;3.00;15.70;99.90;;;;;;5010210;28;11220;-47
2022/03/10 01:01:24;;;;;;;;;2.25;2.25;15.70;99.90;;;;;;5008850;28;10997;-45
2022/03/10 01:03:55;;;;;;;;;2.75;2.75;15.60;99.90;;;;;;5015259;28;11124;-47
2022/03/10 01:06:25;;;;;;;;;3.50;3.50;15.60;99.90;;;;;;5011124;28;11143;-47
2022/03/10 01:08:56;;;;;;;;;3.25;3.25;15.50;99.90;;;;;;5009252;28;11513;-49
2022/03/10 01:11:27;;;;;;;;;3.00;3.00;15.50;99.90;;;;;;5013341;28;10987;-46
2022/03/10 01:13:59;;;;;;;;;3.00;3.00;15.50;99.90;;;;;;5012032;28;11464;-46
2022/03/10 01:16:29;;;;;;;;;2.00;2.00;15.50;99.90;;;;;;5006782;28;12339;-50
2022/03/10 01:19:00;;;;;;;;;1.00;1.00;15.50;99.90;;;;;;5009176;28;11096;-49
2022/03/10 01:21:31;;;;;;;;;4.75;3.00;15.40;99.90;;;;;;5014349;28;11365;-49
2022/03/10 01:24:02;;;;;;;;;7.50;6.00;15.30;99.90;;;;;;5007724;28;11173;-48
2022/03/10 01:26:33;;;;;;;;;6.00;4.75;15.30;99.90;;;;;;5011549;28;11470;-47
2022/03/10 01:29:03;;;;;;;;;4.50;4.50;15.30;99.90;;;;;;5011294;28;12216;-50
2022/03/10 01:31:35;;;;;;;;;3.75;3.75;15.30;99.90;;;;;;5008697;28;11494;-49
2022/03/10 01:34:06;;;;;;;;;5.00;5.00;15.30;99.90;;;;;;5013868;28;11141;-49
2022/03/10 01:36:37;;;;;;;;;5.75;5.75;15.30;99.90;;;;;;5014368;28;11165;-47
2022/03/10 01:39:08;;;;;;;;;5.00;4.00;15.20;99.90;;;;;;5014329;28;11416;-50
2022/03/10 01:41:40;;;;;;;;;3.75;3.75;15.10;99.90;;;;;;5010627;28;11490;-49
2022/03/10 01:44:11;;;;;;;;;5.25;5.00;15.10;99.90;;;;;;5010912;28;11564;-49
2022/03/10 01:46:42;;;;;;;;;5.75;4.00;15.00;99.90;;;;;;5012784;28;11492;-48
2022/03/10 01:49:15;;;;;;;;;4.00;4.00;15.00;99.90;;;;;;5012681;28;11471;-51
2022/03/10 01:51:45;;;;;;;;;6.00;6.00;15.00;99.90;;;;;;5007640;28;11454;-49
2022/03/10 01:54:18;;;;;;;;;5.00;5.00;15.00;99.90;;;;;;5007739;28;11477;-51
2022/03/10 01:56:49;;;;;;;;;5.00;5.00;14.90;99.90;;;;;;5007420;28;12252;-49
2022/03/10 01:59:20;;;;;;;;;4.00;4.00;14.80;99.90;;;;;;5011620;28;11490;-50
2022/03/10 02:01:51;;;;;;;;;5.00;5.00;14.90;99.90;;;;;;5007437;28;11512;-46
2022/03/10 02:04:22;;;;;;;;;4.25;4.25;14.90;99.90;;;;;;5008283;28;11457;-47
2022/03/10 02:06:54;;;;;;;;;2.50;2.00;14.80;99.90;;;;;;5012071;28;11566;-46
2022/03/10 02:12:14;;;;;;;;;5.00;4.75;14.70;99.90;;;;;;5007516;28;11481;-49
2022/03/10 02:17:40;;;;;;;;;4.00;4.00;14.70;99.90;;;;;;5004296;28;11443;-52
2022/03/10 02:20:11;;;;;;;;;6.00;6.00;14.70;99.90;;;;;;5012422;28;12238;-47
2022/03/10 02:22:41;;;;;;;;;6.50;6.00;14.70;99.90;;;;;;5014213;28;11459;-50
2022/03/10 02:25:17;;;;;;;;;0.50;0.50;14.60;99.90;;;;;;5005929;28;11513;-51
2022/03/10 02:27:53;;;;;;;;;6.25;6.25;14.50;99.90;;;;;;5007461;28;12160;-49
2022/03/10 02:30:28;;;;;;;;;7.00;6.00;14.50;99.90;;;;;;5003716;28;11634;-52
2022/03/10 02:32:59;;;;;;;;;5.50;3.50;14.50;99.90;;;;;;5005431;28;11617;-50
2022/03/10 02:35:29;;;;;;;;;6.50;6.50;14.60;99.90;;;;;;5003988;28;11470;-48
2022/03/10 02:38:02;;;;;;;;;5.00;5.00;14.50;99.90;;;;;;5010851;28;11413;-49
2022/03/10 02:40:33;;;;;;;;;6.25;6.00;14.50;99.90;;;;;;5010630;28;11480;-51
2022/03/10 02:43:04;;;;;;;;;7.50;5.50;14.40;99.90;;;;;;5010904;28;11495;-47
2022/03/10 02:45:36;;;;;;;;;8.00;4.75;14.40;99.90;;;;;;5011084;28;11460;-50
2022/03/10 02:48:07;;;;;;;;;5.00;5.00;14.40;99.90;;;;;;5009684;28;11444;-52
2022/03/10 02:50:37;;;;;;;;;5.50;5.50;14.40;99.90;;;;;;5005167;28;11430;-50
2022/03/10 02:53:08;;;;;;;;;5.25;5.00;14.40;99.90;;;;;;5012067;28;11497;-49
2022/03/10 02:55:43;;;;;;;;;8.50;6.25;14.40;99.90;;;;;;5011070;28;11469;-47
2022/03/10 02:58:14;;;;;;;;;9.50;7.75;14.30;99.90;;;;;;5008640;28;11461;-50
2022/03/10 03:00:45;;;;;;;;;5.00;5.00;14.30;99.90;;;;;;5011380;28;11492;-48
2022/03/10 03:03:15;;;;;;;;;7.25;7.25;14.20;99.90;;;;;;5006644;28;11493;-49
2022/03/10 03:05:47;;;;;;;;;4.00;4.00;14.20;99.90;;;;;;5009902;28;11477;-49
2022/03/10 03:08:20;;;;;;;;;7.00;5.50;14.20;99.90;;;;;;5010626;28;11466;-49
2022/03/10 03:10:51;;;;;;;;;4.50;4.50;14.10;99.90;;;;;;5008729;28;11898;-51
2022/03/10 03:13:21;;;;;;;;;8.25;4.25;14.10;99.90;;;;;;5028115;28;11463;-50
2022/03/10 03:15:52;;;;;;;;;6.75;6.75;14.00;99.90;;;;;;5012797;28;11504;-52
2022/03/10 03:18:23;;;;;;;;;4.75;4.50;14.00;99.90;;;;;;5008975;28;11491;-48
2022/03/10 03:20:55;;;;;;;;;10.00;8.50;13.90;99.90;;;;;;5010739;28;12375;-51
2022/03/10 03:23:27;;;;;;;;;7.75;7.75;13.90;99.90;;;;;;5015027;28;11624;-51
2022/03/10 03:25:58;;;;;;;;;5.75;5.75;13.90;99.90;;;;;;5012787;28;11487;-51
2022/03/10 03:28:29;;;;;;;;;9.50;8.00;14.00;99.90;;;;;;5009681;28;11453;-50
2022/03/10 03:30:59;;;;;;;;;8.25;6.75;14.00;99.90;;;;;;5010731;28;11505;-46
2022/03/10 03:33:30;;;;;;;;;10.25;8.00;14.00;99.90;;;;;;5014054;28;11490;-51
2022/03/10 03:36:01;;;;;;;;;6.75;5.25;14.00;99.90;;;;;;5010326;28;11468;-47
2022/03/10 03:38:32;;;;;;;;;5.50;5.50;14.00;99.90;;;;;;5031748;28;11495;-51
2022/03/10 03:41:03;;;;;;;;;4.75;4.75;14.00;99.90;;;;;;5013182;28;12234;-51
2022/03/10 03:43:34;;;;;;;;;9.25;8.75;14.00;99.90;;;;;;5018009;28;11477;-49
2022/03/10 03:46:05;;;;;;;;;5.75;5.75;13.90;99.90;;;;;;5008783;28;11495;-49
2022/03/10 03:48:36;;;;;;;;;9.25;9.00;13.90;99.90;;;;;;5012676;28;13243;-50
2022/03/10 03:51:06;;;;;;;;;8.75;7.00;13.90;99.90;;;;;;5015243;28;11475;-48
2022/03/10 03:53:38;;;;;;;;;8.50;8.50;13.90;99.90;;;;;;5012459;28;11479;-50
2022/03/10 03:56:08;;;;;;;;;7.50;6.00;13.80;99.90;;;;;;5013760;28;11525;-51
2022/03/10 03:58:39;;;;;;;;;8.00;8.00;13.80;99.90;;;;;;5010943;28;11448;-50
2022/03/10 04:01:09;;;;;;;;;9.00;7.00;13.80;99.90;;;;;;5007986;28;12598;-49
2022/03/10 04:03:40;;;;;;;;;8.00;8.00;13.80;99.90;;;;;;5008418;28;11486;-49
2022/03/10 04:06:12;;;;;;;;;8.25;8.25;13.80;99.90;;;;;;5012572;28;11977;-49
2022/03/10 04:08:44;;;;;;;;;9.00;7.25;13.70;99.90;;;;;;5009149;28;11487;-49
2022/03/10 04:11:18;;;;;;;;;6.00;6.00;13.80;99.90;;;;;;5017772;28;12258;-49
2022/03/10 04:13:49;;;;;;;;;9.25;8.50;13.80;99.90;;;;;;5015540;28;11425;-50
2022/03/10 04:16:20;;;;;;;;;8.00;7.25;13.80;99.90;;;;;;5002687;28;11674;-50
2022/03/10 04:18:51;;;;;;;;;6.25;6.25;13.90;99.90;;;;;;5010289;28;11543;-50
2022/03/10 04:21:21;;;;;;;;;6.25;5.00;13.80;99.90;;;;;;5027725;28;11549;-49
2022/03/10 04:23:52;;;;;;;;;9.00;7.50;13.70;99.90;;;;;;5013024;28;11653;-49
2022/03/10 04:26:23;;;;;;;;;8.50;8.50;13.70;99.90;;;;;;5012816;28;11534;-47
2022/03/10 04:28:55;;;;;;;;;5.50;5.50;13.80;99.90;;;;;;5009714;28;11581;-52
2022/03/10 04:31:26;;;;;;;;;7.00;5.50;13.80;99.90;;;;;;5014909;28;11466;-53
2022/03/10 04:33:57;;;;;;;;;6.50;6.50;13.80;99.90;;;;;;5011554;28;11473;-49
2022/03/10 04:36:28;;;;;;;;;8.00;8.00;13.80;99.90;;;;;;5009231;28;11507;-47
2022/03/10 04:38:58;;;;;;;;;6.25;5.00;13.80;99.90;;;;;;5018502;28;12294;-51
2022/03/10 04:41:30;;;;;;;;;7.00;6.00;13.70;99.90;;;;;;5011678;28;11665;-49
2022/03/10 04:44:01;;;;;;;;;8.00;7.25;13.70;99.90;;;;;;5009130;28;11555;-49
2022/03/10 04:46:32;;;;;;;;;6.25;6.25;13.70;99.90;;;;;;5013123;28;11448;-50
2022/03/10 04:49:03;;;;;;;;;7.00;6.00;13.70;99.90;;;;;;5013173;28;11445;-50
2022/03/10 04:51:34;;;;;;;;;11.00;9.00;13.80;99.90;;;;;;5016373;28;11498;-51
2022/03/10 04:54:06;;;;;;;;;8.75;7.00;13.80;99.90;;;;;;5014750;28;12763;-50
2022/03/10 04:56:37;;;;;;;;;6.25;6.00;13.70;99.90;;;;;;5014761;28;11477;-51
2022/03/10 04:59:08;;;;;;;;;10.00;8.50;13.80;99.90;;;;;;5010130;28;11483;-49
2022/03/10 05:01:39;;;;;;;;;8.25;7.00;13.70;99.90;;;;;;5009389;28;11504;-50
2022/03/10 05:04:14;;;;;;;;;6.50;6.50;13.70;99.90;;;;;;5012874;28;11500;-50
2022/03/10 05:06:44;;;;;;;;;7.75;7.75;13.70;99.90;;;;;;5005692;28;11485;-52
2022/03/10 05:09:14;;;;;;;;;8.00;7.00;13.70;99.90;;;;;;5010413;28;11522;-49
2022/03/10 05:11:44;;;;;;;;;7.75;5.50;13.70;99.90;;;;;;5009844;28;11608;-49
2022/03/10 05:14:15;;;;;;;;;10.00;8.00;13.70;99.90;;;;;;5016324;28;11437;-50
2022/03/10 05:16:48;;;;;;;;;7.75;6.75;13.70;99.90;;;;;;5008377;28;11783;-51
2022/03/10 05:19:20;;;;;;;;;10.00;7.50;13.70;99.90;;;;;;5011567;28;11479;-48
2022/03/10 05:21:51;;;;;;;;;9.25;8.00;13.60;99.90;;;;;;5009612;28;11496;-52
2022/03/10 05:24:24;;;;;;;;;4.50;4.50;13.60;99.90;;;;;;5014437;28;11662;-48
2022/03/10 05:26:55;;;;;;;;;9.00;8.00;13.60;99.90;;;;;;5009341;28;12206;-54
2022/03/10 05:29:25;;;;;;;;;9.00;7.00;13.60;99.90;;;;;;5014310;28;11825;-53
2022/03/10 05:31:55;;;;;;;;;9.00;9.00;13.60;99.90;;;;;;5013824;28;11563;-51
2022/03/10 05:34:25;;;;;;;;;5.75;5.75;13.50;99.90;;;;;;5009379;28;12408;-49
2022/03/10 05:36:56;;;;;;;;;6.50;6.50;13.50;99.90;;;;;;5012723;28;11700;-51
2022/03/10 05:39:27;;;;;;;;;9.25;6.75;13.50;99.90;;;;;;5013660;28;11563;-51
2022/03/10 05:41:57;;;;;;;;;9.50;8.50;13.60;99.90;;;;;;5012183;28;12312;-50
2022/03/10 05:44:28;;;;;;;;;7.50;5.75;13.50;99.90;;;;;;5011516;28;11494;-51
2022/03/10 05:46:59;;;;;;;;;6.00;5.50;13.50;99.90;;;;;;5014400;28;11527;-51
2022/03/10 05:49:29;;;;;;;;;6.75;6.50;13.50;99.90;;;;;;5013692;28;11435;-52
2022/03/10 05:52:00;;;;;;;;;7.00;7.00;13.50;99.90;;;;;;5015406;28;11526;-50
2022/03/10 05:54:31;;;;;;;;;6.25;6.25;13.50;99.90;;;;;;5008895;28;11546;-53
2022/03/10 05:57:02;;;;;;;;;9.00;7.75;13.50;99.90;;;;;;5007786;28;11581;-50
2022/03/10 05:59:33;;;;;;;;;9.50;6.75;13.50;99.90;;;;;;5013355;28;11588;-49
2022/03/10 06:02:03;;;;;;;;;5.00;4.50;13.50;99.90;;;;;;5013727;28;11527;-50
2022/03/10 06:04:34;;;;;;;;;6.00;4.25;13.50;99.90;;;;;;5012468;28;11490;-49
2022/03/10 06:07:06;;;;;;;;;5.75;5.75;13.50;99.90;;;;;;5011809;28;11480;-50
2022/03/10 06:09:36;;;;;;;;;6.25;5.00;13.40;99.90;;;;;;5004136;28;11627;-51
2022/03/10 06:12:09;;;;;;;;;5.50;5.50;13.40;99.90;;;;;;5007500;28;11502;-49
2022/03/10 06:14:39;;;;;;;;;6.00;6.00;13.40;99.90;;;;;;5004589;28;11503;-49
2022/03/10 06:17:09;;;;;;;;;5.00;5.00;13.40;99.90;;;;;;5001575;28;12275;-47
2022/03/10 06:19:40;;;;;;;;;5.50;4.75;13.40;99.90;;;;;;5007035;28;12272;-48
2022/03/10 06:22:15;;;;;;;;;7.00;7.00;13.40;99.90;;;;;;5003760;28;11546;-51
2022/03/10 06:24:46;;;;;;;;;5.75;5.75;13.40;99.90;;;;;;5010400;28;11473;-50
2022/03/10 06:27:22;;;;;;;;;5.75;5.25;13.40;99.90;;;;;;5007415;28;11467;-50
2022/03/10 06:29:53;;;;;;;;;8.50;6.25;13.40;99.90;;;;;;5012490;28;11450;-49
2022/03/10 06:32:24;;;;;;;;;4.75;4.75;13.30;99.90;;;;;;5002469;28;11465;-50
2022/03/10 06:34:57;;;;;;;;;5.50;5.50;13.30;99.90;;;;;;5007645;28;11490;-51
2022/03/10 06:37:29;;;;;;;;;4.00;4.00;13.30;99.90;;;;;;5007112;28;11533;-47
2022/03/10 06:40:00;;;;;;;;;6.00;6.00;13.30;99.90;;;;;;5009944;28;12258;-49
2022/03/10 06:42:35;;;;;;;;;5.25;5.25;13.30;99.90;;;;;;5013233;28;11520;-51
2022/03/10 06:45:05;;;;;;;;;9.00;6.50;13.30;99.90;;;;;;5012052;28;11553;-49
2022/03/10 06:47:41;;;;;;;;;5.25;5.25;13.30;99.90;;;;;;5008436;28;11496;-49
2022/03/10 06:50:11;;;;;;;;;6.50;4.50;13.30;99.90;;;;;;5007027;28;12244;-50
2022/03/10 06:52:44;;;;;;;;;5.75;4.00;13.30;99.90;;;;;;5009914;28;11525;-50
2022/03/10 06:55:14;;;;;;;;;8.50;6.75;13.30;99.90;;;;;;5012861;28;11681;-51
2022/03/10 06:57:45;;;;;;;;;7.00;5.50;13.20;99.90;;;;;;5011207;28;12247;-49
2022/03/10 07:00:14;;;;;;;;;5.00;5.00;13.20;99.90;;;;;;5008071;28;11572;-51
2022/03/10 07:02:45;;;;;;;;;5.50;3.00;13.20;99.90;;;;;;5009508;28;11519;-50
2022/03/10 07:05:16;;;;;;;;;3.50;3.50;13.20;99.90;;;;;;5008559;28;11545;-52
2022/03/10 07:07:49;;;;;;;;;4.00;4.00;13.20;99.90;;;;;;5009847;28;11593;-50
2022/03/10 07:10:23;;;;;;;;;4.00;4.00;13.20;99.90;;;;;;5015197;28;11672;-53
2022/03/10 07:12:54;;;;;;;;;6.75;5.50;13.20;99.90;;;;;;5015678;28;11833;-50
2022/03/10 07:15:25;;;;;;;;;5.75;5.00;13.20;99.90;;;;;;5007519;28;11658;-52
2022/03/10 07:17:56;;;;;;;;;2.75;1.00;13.20;99.90;;;;;;5010851;28;11560;-50
2022/03/10 07:20:26;;;;;;;;;5.50;5.50;13.20;99.90;;;;;;5011744;28;11499;-47
2022/03/10 07:22:57;;;;;;;;;4.00;4.00;13.20;99.90;;;;;;5010977;28;11554;-52
2022/03/10 07:25:27;;;;;;;;;6.25;5.00;13.10;99.90;;;;;;5012467;28;11556;-50
2022/03/10 07:27:58;;;;;;;;;4.50;4.50;13.10;99.90;;;;;;5013312;28;11471;-48
2022/03/10 07:30:30;;;;;;;;;5.25;5.25;13.20;99.90;;;;;;5009479;28;11643;-51
2022/03/10 07:33:01;;;;;;;;;6.75;5.00;13.10;99.90;;;;;;5014120;28;11737;-50
2022/03/10 07:35:33;;;;;;;;;3.75;3.75;13.10;99.90;;;;;;5012129;28;11687;-52
2022/03/10 07:38:04;;;;;;;;;4.25;4.25;13.10;99.90;;;;;;5008327;28;11539;-51
2022/03/10 07:40:34;;;;;;;;;4.00;4.00;13.00;99.90;;;;;;5005077;28;11565;-50
2022/03/10 07:43:05;;;;;;;;;7.00;6.00;13.00;99.90;;;;;;5015907;28;11668;-48
2022/03/10 07:45:35;;;;;;;;;5.50;5.00;13.00;99.90;;;;;;5011199;28;11500;-50
2022/03/10 07:48:07;;;;;;;;;2.50;2.50;12.90;99.90;;;;;;5011033;28;11681;-50
2022/03/10 07:50:38;;;;;;;;;4.25;3.50;12.90;99.90;;;;;;5013125;28;11548;-47
2022/03/10 07:53:08;;;;;;;;;3.00;3.00;12.90;99.90;;;;;;5016460;28;11556;-50
2022/03/10 07:55:38;;;;;;;;;5.50;5.50;12.90;99.90;;;;;;5007645;28;11887;-50
2022/03/10 07:58:08;;;;;;;;;4.75;3.75;12.90;99.90;;;;;;5013475;28;11554;-51
2022/03/10 08:00:38;;;;;;;;;8.25;6.00;12.90;99.90;;;;;;4971469;28;11659;-49
2022/03/10 08:03:09;;;;;;;;;6.00;6.00;12.90;99.90;;;;;;5009578;28;11569;-51
2022/03/10 08:05:46;;;;;;;;;9.00;3.00;12.80;99.90;;;;;;5011188;28;11624;-48
2022/03/10 08:08:18;;;;;;;;;4.00;4.00;12.80;99.90;;;;;;5006863;28;11571;-49
2022/03/10 08:10:49;;;;;;;;;3.00;3.00;12.80;99.90;;;;;;5014262;28;11533;-50
2022/03/10 08:13:25;;;;;;;;;3.00;3.00;12.80;99.90;;;;;;5010789;28;11535;-49
2022/03/10 08:15:57;;;;;;;;;2.00;2.00;12.70;99.90;;;;;;5009172;28;11563;-51
2022/03/10 08:18:30;;;;;;;;;5.00;4.00;12.70;99.90;;;;;;5010409;28;11687;-48
2022/03/10 08:21:00;;;;;;;;;1.75;1.75;12.70;99.90;;;;;;5006359;28;11556;-50
2022/03/10 08:23:30;;;;;;;;;4.50;2.75;12.70;99.90;;;;;;4995162;28;11524;-51
2022/03/10 08:26:01;;;;;;;;;5.00;4.00;12.70;99.90;;;;;;5011448;28;11523;-51
2022/03/10 08:28:34;;;;;;;;;3.75;3.75;12.70;99.90;;;;;;5008096;28;12352;-51
2022/03/10 08:31:06;;;;;;;;;2.00;2.00;12.60;99.90;;;;;;5006466;28;12234;-49
2022/03/10 08:33:37;;;;;;;;;2.00;2.00;12.60;99.90;;;;;;5009494;28;11566;-51
2022/03/10 08:36:08;;;;;;;;;2.00;2.00;12.50;99.90;;;;;;5010971;28;11573;-50
2022/03/10 08:38:38;;;;;;;;;3.75;3.75;12.50;99.90;;;;;;5008113;28;12321;-52
2022/03/10 08:41:11;;;;;;;;;3.25;3.25;12.50;99.90;;;;;;5012276;28;11580;-51
2022/03/10 08:43:41;;;;;;;;;4.75;3.00;12.50;99.90;;;;;;5010592;28;11850;-51
2022/03/10 08:46:11;;;;;;;;;2.75;2.75;12.50;99.90;;;;;;5006646;28;11672;-48
2022/03/10 08:48:44;;;;;;;;;4.00;4.00;12.50;99.90;;;;;;5012074;28;11516;-47
2022/03/10 08:51:14;;;;;;;;;4.50;4.50;12.50;99.90;;;;;;5011532;28;11512;-50
2022/03/10 08:53:45;;;;;;;;;6.75;3.75;12.50;99.90;;;;;;5012107;28;11558;-49
2022/03/10 08:56:16;;;;;;;;;4.00;4.00;12.40;99.90;;;;;;5008716;28;11516;-51
2022/03/10 08:58:46;;;;;;;;;4.50;3.50;12.40;99.90;;;;;;5010900;28;12131;-50
2022/03/10 09:01:18;;;;;;;;;3.75;3.75;12.40;99.90;;;;;;5010580;28;11522;-50
2022/03/10 09:03:53;;;;;;;;;4.00;2.00;12.40;99.90;;;;;;5009746;28;11550;-50
2022/03/10 09:06:29;;;;;;;;;4.50;4.00;12.40;99.90;;;;;;5010722;28;11521;-51
2022/03/10 09:08:59;;;;;;;;;6.50;6.50;12.40;99.90;;;;;;5005938;28;11615;-48
2022/03/10 09:11:30;;;;;;;;;6.75;6.00;12.30;99.90;;;;;;5010377;28;11556;-51
2022/03/10 09:14:03;;;;;;;;;3.00;1.00;12.30;99.90;;;;;;5011257;28;11679;-51
2022/03/10 09:16:33;;;;;;;;;3.75;3.75;12.30;99.90;;;;;;5007385;28;11647;-50
2022/03/10 09:19:04;;;;;;;;;3.75;3.50;12.30;99.90;;;;;;5007057;28;11529;-52
2022/03/10 09:21:34;;;;;;;;;1.00;1.00;12.30;99.90;;;;;;5006840;28;11554;-51
2022/03/10 09:24:08;;;;;;;;;5.00;3.00;12.20;99.90;;;;;;5011705;28;11516;-50
2022/03/10 09:26:39;;;;;;;;;4.50;4.50;12.20;99.90;;;;;;5007523;28;11498;-50
2022/03/10 09:29:11;;;;;;;;;6.25;3.25;12.20;99.90;;;;;;5012347;28;11550;-50
2022/03/10 09:31:45;;;;;;;;;3.00;3.00;12.20;99.90;;;;;;5007456;28;11554;-51
2022/03/10 09:34:16;;;;;;;;;3.75;3.75;12.20;99.90;;;;;;5010846;28;11534;-49
2022/03/10 09:36:45;;;;;;;;;5.75;5.75;12.10;99.90;;;;;;5010973;28;11684;-51
2022/03/10 09:39:18;;;;;;;;;4.25;4.25;12.20;99.90;;;;;;5011977;28;11583;-51
2022/03/10 09:41:49;;;;;;;;;5.00;5.00;12.10;99.90;;;;;;5006899;28;11528;-51
2022/03/10 09:44:21;;;;;;;;;5.75;5.75;12.10;99.90;;;;;;5010995;28;12392;-50
2022/03/10 09:46:53;;;;;;;;;5.50;5.50;12.10;99.90;;;;;;5010491;28;12148;-51
2022/03/10 09:49:24;;;;;;;;;5.75;5.75;12.10;99.90;;;;;;5010903;28;11499;-51
2022/03/10 09:51:56;;;;;;;;;4.00;4.00;12.00;99.90;;;;;;5008854;28;11546;-51
2022/03/10 09:54:29;;;;;;;;;3.00;3.00;12.00;99.90;;;;;;5010366;28;11546;-52
2022/03/10 09:57:00;;;;;;;;;8.00;5.00;12.00;99.90;;;;;;5001779;28;11536;-49
2022/03/10 09:59:31;;;;;;;;;5.00;4.00;12.00;99.90;;;;;;5009080;28;11507;-49
2022/03/10 10:02:04;;;;;;;;;7.00;5.00;11.90;99.90;;;;;;5009937;28;11565;-49
2022/03/10 10:04:34;;;;;;;;;4.25;4.25;11.90;99.90;;;;;;5009060;28;11863;-51
2022/03/10 10:07:07;;;;;;;;;5.00;5.00;11.90;99.90;;;;;;5006704;28;11505;-49
2022/03/10 10:09:53;;;;;;;;;4.50;4.50;11.90;99.90;;;;;;5008318;28;11552;-51
2022/03/10 10:12:29;;;;;;;;;7.00;7.00;11.90;99.90;;;;;;5010525;28;11498;-50
2022/03/10 10:15:00;;;;;;;;;6.50;6.50;11.80;99.90;;;;;;5004119;28;11562;-50
2022/03/10 10:17:34;;;;;;;;;5.00;5.00;11.90;99.90;;;;;;5004253;28;12508;-50
2022/03/10 10:20:24;;;;;;;;;10.00;7.25;11.90;99.90;;;;;;5008172;28;11508;-51
2022/03/10 10:22:55;;;;;;;;;7.75;6.00;11.80;99.90;;;;;;5011785;28;11514;-52
2022/03/10 10:25:27;;;;;;;;;8.00;8.00;11.80;99.90;;;;;;5006410;28;11520;-49
2022/03/10 10:28:27;;;;;;;;;9.00;8.25;11.80;99.90;;;;;;5006527;28;12253;-51
2022/03/10 10:31:04;;;;;;;;;14.25;14.25;11.80;99.90;;;;;;5008984;28;11496;-49
2022/03/10 10:33:36;;;;;;;;;15.75;15.75;11.70;99.90;;;;;;5006898;28;11589;-49
2022/03/10 10:36:23;;;;;;;;;16.50;14.75;11.70;99.90;;;;;;5012268;28;12331;-48
2022/03/10 10:38:56;;;;;;;;;15.50;14.00;11.70;99.90;;;;;;5009094;28;11697;-47
2022/03/10 10:41:30;;;;;;;;;11.25;9.75;11.70;99.90;;;;;;5006070;28;11600;-47
2022/03/10 10:44:07;;;;;;;;;7.00;7.00;11.70;99.90;;;;;;5008865;28;12320;-49
2022/03/10 10:46:43;;;;;;;;;4.25;4.25;11.70;99.90;;;;;;5009419;28;11600;-51
2022/03/10 10:49:16;;;;;;;;;7.00;7.00;11.70;99.90;;;;;;5007167;28;11542;-50
2022/03/10 10:51:52;;;;;;;;;4.25;2.75;11.60;99.90;;;;;;5009937;28;11521;-46
2022/03/10 10:54:31;;;;;;;;;6.00;4.50;11.60;99.90;;;;;;5007038;28;14205;-50
2022/03/10 10:57:03;;;;;;;;;5.25;5.25;11.50;99.90;;;;;;5023839;28;11666;-51
2022/03/10 10:59:35;;;;;;;;;5.75;5.75;11.50;99.90;;;;;;5007919;28;11532;-50
2022/03/10 11:02:18;;;;;;;;;4.50;4.50;11.50;99.90;;;;;;5007877;28;11568;-50
2022/03/10 11:04:54;;;;;;;;;4.00;4.00;11.50;99.90;;;;;;5002799;28;11550;-48
2022/03/10 11:07:24;;;;;;;;;4.25;4.25;11.50;99.90;;;;;;5007246;28;11511;-56
2022/03/10 11:09:54;;;;;;;;;4.25;4.25;11.50;99.90;;;;;;5010124;28;11573;-50
2022/03/10 11:12:25;;;;;;;;;6.50;4.50;11.40;99.90;;;;;;5012889;28;10945;-50
2022/03/10 11:15:00;;;;;;;;;6.00;4.50;11.40;99.90;;;;;;5002682;28;11536;-50
2022/03/10 11:17:30;;;;;;;;;4.75;3.25;11.40;99.90;;;;;;5001631;28;11576;-47
2022/03/10 11:20:07;;;;;;;;;6.50;6.00;11.40;99.90;;;;;;5008808;28;11567;-48
2022/03/10 11:22:55;;;;;;;;;4.50;4.50;11.40;99.90;;;;;;5009256;28;11511;-50
2022/03/10 11:26:14;;;;;;;;;7.25;6.25;11.30;99.90;;;;;;5012207;28;11546;-51
2022/03/10 11:28:46;;;;;;;;;9.00;9.00;11.40;99.90;;;;;;5008865;28;11526;-47
2022/03/10 11:31:17;;;;;;;;;11.50;11.50;11.30;99.90;;;;;;5009312;28;11916;-52
2022/03/10 11:33:48;;;;;;;;;10.25;10.00;11.30;99.90;;;;;;5006111;28;11526;-50
2022/03/10 11:36:27;;;;;;;;;13.25;13.00;11.30;99.90;;;;;;5006447;28;11566;-52
2022/03/10 11:38:59;;;;;;;;;13.25;13.25;11.20;99.90;;;;;;5013974;28;11571;-52
2022/03/10 11:41:46;;;;;;;;;14.25;14.25;11.20;99.90;;;;;;5013840;28;11558;-51
2022/03/10 11:44:23;;;;;;;;;12.50;12.50;11.20;99.90;;;;;;5005859;28;12112;-51
2022/03/10 11:46:57;;;;;;;;;10.00;9.25;11.20;99.90;;;;;;5012277;28;11631;-50
2022/03/10 11:49:39;;;;;;;;;8.75;6.75;11.20;99.90;;;;;;5013266;28;11559;-48
2022/03/10 11:52:28;;;;;;;;;6.50;6.50;11.20;99.90;;;;;;5013282;28;11564;-51
2022/03/10 11:55:12;;;;;;;;;5.75;4.00;11.20;99.90;;;;;;5012219;28;11717;-51
2022/03/10 11:58:06;;;;;;;;;6.50;5.50;11.10;99.90;;;;;;5012048;28;11511;-49
2022/03/10 12:00:47;;;;;;;;;4.00;4.00;11.10;99.90;;;;;;5010767;28;11609;-47
2022/03/10 12:03:29;;;;;;;;;5.50;4.00;11.10;99.90;;;;;;5011794;28;11569;-47
2022/03/10 12:06:04;;;;;;;;;4.50;3.75;11.00;99.90;;;;;;5007229;28;11555;-53
2022/03/10 12:08:40;;;;;;;;;7.50;5.50;10.90;99.90;;;;;;5008329;28;11510;-50
2022/03/10 12:11:20;;;;;;;;;4.75;4.75;10.90;99.90;;;;;;5012098;28;11634;-51
2022/03/10 12:13:50;;;;;;;;;4.50;3.25;10.90;99.90;;;;;;5008724;28;12206;-49
2022/03/10 12:16:23;;;;;;;;;5.00;4.00;10.90;99.90;;;;;;5010225;28;11514;-52
2022/03/10 12:18:55;;;;;;;;;4.00;4.00;10.90;99.90;;;;;;5010279;28;11510;-50
2022/03/10 12:21:28;;;;;;;;;5.25;5.25;10.90;99.90;;;;;;5010554;28;11555;-51
2022/03/10 12:24:03;;;;;;;;;3.00;3.00;10.80;99.90;;;;;;5007082;28;11562;-51
2022/03/10 12:26:44;;;;;;;;;3.75;3.75;10.80;99.90;;;;;;5008250;28;11525;-48
2022/03/10 12:29:15;;;;;;;;;3.50;3.50;10.80;99.90;;;;;;5024435;28;11523;-49
2022/03/10 12:31:46;;;;;;;;;3.00;3.00;10.80;99.90;;;;;;5011763;28;11500;-51
2022/03/10 12:34:25;;;;;;;;;3.00;2.75;10.80;99.90;;;;;;5004479;28;11493;-52
2022/03/10 12:36:59;;;;;;;;;3.25;3.25;10.80;99.90;;;;;;5010470;28;12338;-49
2022/03/10 12:39:30;;;;;;;;;5.00;5.00;10.70;99.90;;;;;;5009694;28;11540;-51
2022/03/10 12:42:02;;;;;;;;;5.00;5.00;10.70;99.90;;;;;;5010378;28;11530;-52
2022/03/10 12:44:34;;;;;;;;;8.50;6.25;10.70;99.90;;;;;;5007618;28;11519;-50
2022/03/10 12:47:10;;;;;;;;;2.25;2.25;10.70;99.90;;;;;;5003344;28;11581;-53
2022/03/10 12:49:48;;;;;;;;;2.25;2.25;10.70;99.90;;;;;;5007098;28;11714;-51
2022/03/10 12:52:25;;;;;;;;;3.50;3.50;10.60;99.90;;;;;;5011526;28;11534;-52
2022/03/10 12:54:57;;;;;;;;;2.50;2.50;10.70;99.90;;;;;;5013687;28;11508;-51
2022/03/10 12:57:28;;;;;;;;;3.75;3.50;10.60;99.90;;;;;;5003550;28;11481;-52
2022/03/10 13:00:00;;;;;;;;;5.75;5.75;10.60;99.90;;;;;;5012727;28;11560;-50
2022/03/10 13:02:37;;;;;;;;;3.00;3.00;10.60;99.90;;;;;;5003076;28;12070;-51
2022/03/10 13:05:09;;;;;;;;;6.50;4.50;10.60;99.90;;;;;;5011004;28;11524;-50
2022/03/10 13:07:39;;;;;;;;;3.00;3.00;10.50;99.90;;;;;;5010388;28;11527;-50
2022/03/10 13:10:12;;;;;;;;;3.50;3.00;10.50;99.90;;;;;;5008195;28;11511;-52
2022/03/10 13:12:45;;;;;;;;;3.50;3.00;10.50;99.90;;;;;;5011311;28;11665;-49
2022/03/10 13:15:24;;;;;;;;;4.25;4.25;10.50;99.90;;;;;;5008838;28;11559;-52
2022/03/10 13:18:04;;;;;;;;;3.00;3.00;10.50;99.90;;;;;;5005997;28;11600;-52